»·PEaware :: TEXAN22 KRND-KRND

TEXAN22 :: KRND-KRND

FLIGHT INFORMATION

Flight Status: Arrived
Operator: Unknown
More flights by this operator :: More flights under this callsign
Pilot: Indie I. (23343)
Aircraft: BEECH AIRCRAFT T-6A TEXAN
(TEX2)
More flights by this aircraft type
Origin: KRND Randolph AFB
United States
Destination: KRND Randolph AFB
United States
More flights between these airports :: More routes between these airports
Route: CRPT6
File this flight plan on PilotEdge
Remarks: +CW /
Altitude:
(Current/Filed)
17,000ft
Speed:
(Current/Filed)
254kts
Departed: 30-Mar-20 06:18 AM
Arrived: 30-Mar-20 07:31 AM
Distance/Time
Traveled:
0nm/1:13
Distance/Time
To Go:
Arrived

Flight Plot

Page will automatically refresh every two minutes.

Flight plan parsing failed; only flown route is shown


Map Options




Map Legend


Flown Route
Filed Route
Departure Airport
Arrival Airport
Navaid (VOR, NDB)
Fix

Horizontal Profiles

Position Reports

Time Latitude Longitude Heading Altitude Ground
Speed
30-Mar-20 06:09 29.534901 -98.290728 276 765ft 0kts
30-Mar-20 06:10 29.534902 -98.290730 276 765ft 0kts
30-Mar-20 06:11 29.534963 -98.291152 277 765ft 11kts
30-Mar-20 06:12 29.534971 -98.291568 266 765ft 0kts
30-Mar-20 06:13 29.534971 -98.291570 266 765ft 0kts
30-Mar-20 06:14 29.534971 -98.291572 266 765ft 0kts
30-Mar-20 06:15 29.534968 -98.291721 263 765ft 0kts
30-Mar-20 06:16 29.533654 -98.292354 150 765ft 33kts
30-Mar-20 06:17 29.498481 -98.275770 176 1867ft 182kts
30-Mar-20 06:18 29.441227 -98.270894 175 3252ft 234kts
30-Mar-20 06:19 29.388778 -98.285814 195 7027ft 182kts
30-Mar-20 06:20 29.339247 -98.294417 188 9954ft 183kts
30-Mar-20 06:21 29.287816 -98.297139 174 12611ft 183kts
30-Mar-20 06:22 29.235336 -98.308128 181 14766ft 198kts
30-Mar-20 06:23 29.179372 -98.310481 179 16619ft 213kts
30-Mar-20 06:24 29.113119 -98.305218 180 16922ft 256kts
30-Mar-20 06:25 29.041885 -98.303321 179 16782ft 259kts
30-Mar-20 06:26 28.973580 -98.280661 160 17017ft 261kts
30-Mar-20 06:27 28.902434 -98.270410 181 17055ft 259kts
30-Mar-20 06:28 28.830289 -98.267421 179 17016ft 259kts
30-Mar-20 06:29 28.760269 -98.255076 163 16988ft 252kts
30-Mar-20 06:30 28.695950 -98.224366 150 16891ft 252kts
30-Mar-20 06:31 28.633459 -98.190691 159 16976ft 247kts
30-Mar-20 06:32 28.567969 -98.166761 164 17094ft 244kts
30-Mar-20 06:33 28.501603 -98.148057 167 17169ft 244kts
30-Mar-20 06:34 28.434174 -98.131437 169 17005ft 251kts
30-Mar-20 06:35 28.365943 -98.116177 167 17031ft 248kts
30-Mar-20 06:36 28.299580 -98.102734 173 16960ft 250kts
30-Mar-20 06:37 28.236552 -98.073989 127 16580ft 260kts
30-Mar-20 06:38 27.901850 -97.444956 184 5000ft 214kts
30-Mar-20 06:39 27.880618 -97.446087 176 5105ft 220kts
30-Mar-20 06:40 27.870384 -97.445064 173 5256ft 216kts
30-Mar-20 06:42 27.840703 -97.488190 290 5057ft 223kts
30-Mar-20 06:43 27.863554 -97.549183 276 4637ft 214kts
30-Mar-20 06:44 27.836651 -97.593384 287 4443ft 200kts
30-Mar-20 06:45 27.875276 -97.629732 324 3888ft 179kts
30-Mar-20 06:46 27.885362 -97.681423 269 3696ft 178kts
30-Mar-20 06:47 27.902401 -97.731513 350 3274ft 206kts
30-Mar-20 06:48 27.923343 -97.684563 98 3010ft 201kts
30-Mar-20 06:49 27.889930 -97.636468 135 2072ft 179kts
30-Mar-20 06:50 27.859460 -97.604436 134 1815ft 131kts
30-Mar-20 06:51 27.833967 -97.575930 134 1752ft 125kts
30-Mar-20 06:52 27.810010 -97.548978 135 872ft 108kts
30-Mar-20 06:53 27.787058 -97.524435 136 374ft 100kts
30-Mar-20 06:54 27.764118 -97.498780 114 1443ft 147kts
30-Mar-20 06:55 27.793393 -97.478405 8 4589ft 150kts
30-Mar-20 06:56 27.844528 -97.465565 9 6263ft 223kts
30-Mar-20 06:57 27.908354 -97.441522 47 5811ft 235kts
30-Mar-20 06:58 27.955902 -97.397444 4 5971ft 223kts
30-Mar-20 06:59 27.934572 -97.430928 201 5933ft 188kts
30-Mar-20 07:00 27.883571 -97.437982 157 5317ft 195kts
30-Mar-20 07:01 27.845506 -97.403733 151 3491ft 155kts
30-Mar-20 07:01 27.816481 -97.382287 145 1731ft 143kts
30-Mar-20 07:03 27.782696 -97.357219 145 1633ft 124kts
30-Mar-20 07:04 27.752843 -97.335571 146 1233ft 120kts
30-Mar-20 07:04 27.729268 -97.318753 152 389ft 112kts
30-Mar-20 07:06 27.697605 -97.298045 134 23ft 83kts
30-Mar-20 07:06 27.677117 -97.278508 146 1178ft 151kts
30-Mar-20 07:07 27.642967 -97.245921 114 4200ft 167kts
30-Mar-20 07:09 27.666103 -97.233957 313 7716ft 174kts
30-Mar-20 07:10 27.690193 -97.273933 304 10505ft 180kts
30-Mar-20 07:10 27.690193 -97.273933 304 10505ft 180kts
30-Mar-20 07:12 27.690193 -97.273933 304 10505ft 180kts
30-Mar-20 07:12 27.690193 -97.273933 304 10505ft 180kts
30-Mar-20 07:13 27.690193 -97.273933 304 10505ft 180kts
30-Mar-20 07:14 27.690193 -97.273933 304 10505ft 180kts
30-Mar-20 07:15 29.548347 -98.203650 329 4000ft 164kts
30-Mar-20 07:16 29.548347 -98.203650 329 4000ft 164kts
30-Mar-20 07:17 29.548347 -98.203650 329 4000ft 164kts
30-Mar-20 07:18 29.556127 -98.208666 335 4063ft 194kts
30-Mar-20 07:19 29.588600 -98.223658 336 4073ft 223kts
30-Mar-20 07:20 29.627986 -98.243214 337 3580ft 197kts
30-Mar-20 07:21 29.681404 -98.268112 338 3602ft 210kts
30-Mar-20 07:22 29.733541 -98.298167 301 3575ft 212kts
30-Mar-20 07:23 29.718382 -98.360064 243 3605ft 199kts
30-Mar-20 07:24 29.682997 -98.388113 163 3149ft 153kts
30-Mar-20 07:25 29.646739 -98.367168 147 3270ft 132kts
30-Mar-20 07:26 29.616964 -98.348478 152 2527ft 115kts
30-Mar-20 07:27 29.589112 -98.329345 150 1973ft 116kts
30-Mar-20 07:28 29.561314 -98.310543 151 1387ft 118kts
30-Mar-20 07:29 29.533497 -98.292171 150 775ft 98kts
30-Mar-20 07:30 29.526611 -98.286965 81 765ft 16kts
30-Mar-20 07:31 29.526831 -98.286350 59 765ft 0kts
30-Mar-20 07:32 29.526832 -98.286349 59 765ft 0kts
30-Mar-20 07:33 29.526833 -98.286347 59 765ft 0kts
30-Mar-20 07:34 29.526833 -98.286346 59 765ft 0kts
30-Mar-20 07:35 29.526833 -98.286346 59 765ft 0kts
30-Mar-20 07:36 29.526833 -98.286346 59 765ft 0kts
30-Mar-20 07:37 29.526833 -98.286346 59 765ft 0kts
30-Mar-20 07:38 29.526833 -98.286346 59 765ft 0kts
30-Mar-20 07:39 29.526833 -98.286346 59 765ft 0kts
30-Mar-20 07:40 29.526833 -98.286346 59 765ft 0kts

Navigation Log

Ident Type
Flight plan parsing failed, navigation log unavailable